ENT3EY LEPA-EPWA
Flight info
| Callsign | ENT3EY |
|---|---|
| Flight time | N/A |
| Altitude | 34000 |
| Route | ISTER DCT NIVDA DCT OMEDA/N0444F360 DCT RAPUR DCT TORTU DCT ERTEV DCT MALUG/N0441F350 DCT INGID DCT GAMLI DCT STO DCT LEDVA DCT NETIR DCT USALO DCT KOTEK DCT LOGDA |
| Aircraft | B738/M-SDGHIJ1RWXY/EB1 |
Departure
| Time | 2026-05-06 13:40 |
|---|---|
| Airport | Palma de Mallorca Airport (LEPA) |
Arrival
| Time | N/A |
|---|---|
| Airport | Warsaw Chopin Airport (EPWA) |
| Time | Latitude | Longitude | Altitude | Speed | Heading |
|---|---|---|---|---|---|
| 2026-05-06 13:27 | 39.55021 | 2.73431 | 35 ft | 3 kts | 148° |
| 2026-05-06 13:27 | 39.55036 | 2.73413 | 35 ft | 3 kts | 107° |
| 2026-05-06 13:27 | 39.55036 | 2.73391 | 37 ft | 2 kts | 58° |
| 2026-05-06 13:28 | 39.55036 | 2.73390 | 37 ft | 1 kts | 58° |
| 2026-05-06 13:30 | 39.55041 | 2.73400 | 34 ft | 5 kts | 58° |
| 2026-05-06 13:30 | 39.55064 | 2.73448 | 36 ft | 7 kts | 58° |
| 2026-05-06 13:30 | 39.55092 | 2.73511 | 36 ft | 10 kts | 59° |
| 2026-05-06 13:30 | 39.55130 | 2.73594 | 37 ft | 11 kts | 59° |
| 2026-05-06 13:31 | 39.55177 | 2.73696 | 37 ft | 15 kts | 69° |
| 2026-05-06 13:31 | 39.55116 | 2.73790 | 37 ft | 15 kts | 148° |
| 2026-05-06 13:31 | 39.55023 | 2.73864 | 35 ft | 16 kts | 148° |
| 2026-05-06 13:31 | 39.54930 | 2.73936 | 37 ft | 15 kts | 150° |
| 2026-05-06 13:32 | 39.54871 | 2.73982 | 37 ft | 15 kts | 149° |
| 2026-05-06 13:32 | 39.54790 | 2.73944 | 37 ft | 14 kts | 225° |
| 2026-05-06 13:32 | 39.54745 | 2.73954 | 37 ft | 11 kts | 160° |
| 2026-05-06 13:32 | 39.54672 | 2.73880 | 35 ft | 16 kts | 238° |
| 2026-05-06 13:33 | 39.54612 | 2.73754 | 37 ft | 19 kts | 238° |
| 2026-05-06 13:33 | 39.54542 | 2.73607 | 37 ft | 19 kts | 238° |
| 2026-05-06 13:33 | 39.54474 | 2.73462 | 37 ft | 18 kts | 239° |
| 2026-05-06 13:33 | 39.54408 | 2.73322 | 36 ft | 18 kts | 238° |
| 2026-05-06 13:34 | 39.54345 | 2.73188 | 37 ft | 17 kts | 238° |
| 2026-05-06 13:34 | 39.54280 | 2.73061 | 36 ft | 17 kts | 221° |
| 2026-05-06 13:34 | 39.54238 | 2.73055 | 37 ft | 0 kts | 151° |
| 2026-05-06 13:38 | 39.54235 | 2.73057 | 37 ft | 3 kts | 150° |
| 2026-05-06 13:38 | 39.54211 | 2.73141 | 37 ft | 16 kts | 90° |
| 2026-05-06 13:38 | 39.54211 | 2.73287 | 37 ft | 16 kts | 90° |
| 2026-05-06 13:39 | 39.54245 | 2.73419 | 37 ft | 15 kts | 59° |
| 2026-05-06 13:39 | 39.54350 | 2.73642 | 37 ft | 63 kts | 59° |
| 2026-05-06 13:39 | 39.54720 | 2.74425 | 37 ft | 138 kts | 58° |
| 2026-05-06 13:39 | 39.55328 | 2.75667 | 357 ft | 176 kts | 60° |
| 2026-05-06 13:40 | 39.55975 | 2.77068 | 1212 ft | 187 kts | 60° |
| 2026-05-06 13:40 | 39.56644 | 2.78498 | 2318 ft | 177 kts | 59° |
| 2026-05-06 13:40 | 39.57261 | 2.79818 | 3274 ft | 175 kts | 60° |
| 2026-05-06 13:40 | 39.57933 | 2.81297 | 3575 ft | 205 kts | 59° |
| 2026-05-06 13:41 | 39.58723 | 2.82976 | 3797 ft | 231 kts | 58° |
| 2026-05-06 13:41 | 39.59600 | 2.84832 | 4046 ft | 254 kts | 58° |
| 2026-05-06 13:41 | 39.60556 | 2.86857 | 4511 ft | 270 kts | 58° |
| 2026-05-06 13:41 | 39.61542 | 2.88951 | 5320 ft | 274 kts | 58° |
| 2026-05-06 13:42 | 39.62543 | 2.91078 | 6105 ft | 279 kts | 58° |
| 2026-05-06 13:42 | 39.63558 | 2.93238 | 6917 ft | 283 kts | 58° |
| 2026-05-06 13:42 | 39.64592 | 2.95441 | 7665 ft | 288 kts | 58° |
| 2026-05-06 13:42 | 39.65637 | 2.97672 | 8459 ft | 291 kts | 58° |
| 2026-05-06 13:43 | 39.66698 | 2.99938 | 9216 ft | 296 kts | 58° |
| 2026-05-06 13:43 | 39.67776 | 3.02243 | 9956 ft | 301 kts | 58° |
| 2026-05-06 13:43 | 39.68884 | 3.04614 | 10405 ft | 317 kts | 58° |
| 2026-05-06 13:43 | 39.70072 | 3.07155 | 10593 ft | 340 kts | 58° |
| 2026-05-06 13:44 | 39.71324 | 3.09839 | 11050 ft | 353 kts | 58° |
| 2026-05-06 13:44 | 39.72604 | 3.12588 | 11700 ft | 358 kts | 58° |
| 2026-05-06 13:44 | 39.73903 | 3.15379 | 12391 ft | 363 kts | 58° |
| 2026-05-06 13:44 | 39.75218 | 3.18209 | 13059 ft | 369 kts | 58° |
| 2026-05-06 13:45 | 39.76556 | 3.21088 | 13733 ft | 375 kts | 58° |
| 2026-05-06 13:45 | 39.79291 | 3.26983 | 14905 ft | 385 kts | 58° |
| 2026-05-06 13:45 | 39.80677 | 3.29976 | 15538 ft | 389 kts | 58° |
| 2026-05-06 13:46 | 39.82081 | 3.33009 | 16142 ft | 393 kts | 58° |
| 2026-05-06 13:46 | 39.83499 | 3.36076 | 16734 ft | 398 kts | 58° |
| 2026-05-06 13:46 | 39.84933 | 3.39181 | 17325 ft | 403 kts | 58° |
| 2026-05-06 13:46 | 39.86384 | 3.42325 | 17928 ft | 407 kts | 58° |
| 2026-05-06 13:47 | 39.87848 | 3.45500 | 18459 ft | 412 kts | 58° |
| 2026-05-06 13:47 | 39.89326 | 3.48711 | 18957 ft | 416 kts | 58° |
| 2026-05-06 13:47 | 39.90819 | 3.51956 | 19470 ft | 419 kts | 59° |
| 2026-05-06 13:47 | 39.92324 | 3.55231 | 19978 ft | 423 kts | 59° |
| 2026-05-06 13:48 | 39.93843 | 3.58539 | 20477 ft | 427 kts | 59° |
| 2026-05-06 13:48 | 39.95375 | 3.61880 | 20967 ft | 431 kts | 59° |
| 2026-05-06 13:48 | 39.96919 | 3.65251 | 21450 ft | 435 kts | 59° |
| 2026-05-06 13:48 | 39.98475 | 3.68651 | 21924 ft | 439 kts | 59° |
| 2026-05-06 13:49 | 40.00049 | 3.72094 | 22380 ft | 444 kts | 59° |
| 2026-05-06 13:49 | 40.01635 | 3.75567 | 22854 ft | 447 kts | 59° |
| 2026-05-06 13:49 | 40.03229 | 3.79064 | 23318 ft | 451 kts | 59° |
| 2026-05-06 13:49 | 40.04838 | 3.82595 | 23724 ft | 454 kts | 59° |
| 2026-05-06 13:50 | 40.06455 | 3.86149 | 24125 ft | 457 kts | 59° |
| 2026-05-06 13:50 | 40.08082 | 3.89729 | 24524 ft | 459 kts | 59° |
| 2026-05-06 13:50 | 40.09717 | 3.93330 | 24911 ft | 462 kts | 59° |
| 2026-05-06 13:50 | 40.11359 | 3.96951 | 25285 ft | 465 kts | 59° |
| 2026-05-06 13:51 | 40.13011 | 4.00597 | 25646 ft | 468 kts | 59° |
| 2026-05-06 13:51 | 40.14672 | 4.04269 | 26012 ft | 471 kts | 59° |
| 2026-05-06 13:51 | 40.16343 | 4.07966 | 26376 ft | 473 kts | 59° |
| 2026-05-06 13:51 | 40.18020 | 4.11683 | 26733 ft | 476 kts | 59° |
| 2026-05-06 13:52 | 40.19707 | 4.15425 | 27042 ft | 480 kts | 59° |
| 2026-05-06 13:52 | 40.21409 | 4.19205 | 27358 ft | 484 kts | 59° |
| 2026-05-06 13:52 | 40.23116 | 4.22999 | 27742 ft | 484 kts | 59° |
| 2026-05-06 13:52 | 40.24825 | 4.26805 | 28122 ft | 485 kts | 59° |
| 2026-05-06 13:53 | 40.26539 | 4.30628 | 28425 ft | 489 kts | 59° |
| 2026-05-06 13:53 | 40.28264 | 4.34476 | 28706 ft | 492 kts | 59° |
| 2026-05-06 13:53 | 40.29995 | 4.38346 | 29016 ft | 494 kts | 59° |
| 2026-05-06 13:53 | 40.31737 | 4.42243 | 29333 ft | 496 kts | 59° |
| 2026-05-06 13:54 | 40.33482 | 4.46154 | 29633 ft | 498 kts | 60° |
| 2026-05-06 13:54 | 40.35235 | 4.50087 | 29917 ft | 501 kts | 60° |
| 2026-05-06 13:54 | 40.36994 | 4.54038 | 30166 ft | 503 kts | 60° |
| 2026-05-06 13:54 | 40.38762 | 4.58013 | 30438 ft | 504 kts | 60° |
| 2026-05-06 13:55 | 40.40526 | 4.61985 | 30774 ft | 504 kts | 60° |
| 2026-05-06 13:55 | 40.42285 | 4.65952 | 31125 ft | 503 kts | 60° |
| 2026-05-06 13:55 | 40.44040 | 4.69914 | 31449 ft | 502 kts | 60° |
| 2026-05-06 13:55 | 40.45793 | 4.73878 | 31760 ft | 502 kts | 60° |
| 2026-05-06 13:56 | 40.47545 | 4.77845 | 32050 ft | 502 kts | 60° |
| 2026-05-06 13:56 | 40.49294 | 4.81809 | 32360 ft | 501 kts | 60° |
| 2026-05-06 13:56 | 40.51040 | 4.85772 | 32675 ft | 501 kts | 60° |
| 2026-05-06 13:56 | 40.52783 | 4.89733 | 33013 ft | 501 kts | 60° |
| 2026-05-06 13:57 | 40.54523 | 4.93691 | 33341 ft | 499 kts | 60° |
| 2026-05-06 13:57 | 40.56257 | 4.97643 | 33669 ft | 498 kts | 60° |
| 2026-05-06 13:57 | 40.57983 | 5.01580 | 33973 ft | 497 kts | 60° |
| 2026-05-06 13:57 | 40.59717 | 5.05542 | 33949 ft | 501 kts | 60° |
| 2026-05-06 13:58 | 40.63195 | 5.13503 | 33952 ft | 501 kts | 60° |
| 2026-05-06 13:58 | 40.66634 | 5.21394 | 33947 ft | 494 kts | 60° |
| 2026-05-06 13:59 | 40.70054 | 5.29262 | 33966 ft | 495 kts | 60° |
| 2026-05-06 13:59 | 40.73471 | 5.37145 | 33945 ft | 495 kts | 60° |
| 2026-05-06 14:00 | 40.76881 | 5.45031 | 33955 ft | 495 kts | 60° |
| 2026-05-06 14:00 | 40.80284 | 5.52923 | 33963 ft | 495 kts | 61° |
| 2026-05-06 14:01 | 40.83687 | 5.60834 | 33961 ft | 496 kts | 61° |
| 2026-05-06 14:01 | 40.87088 | 5.68763 | 33952 ft | 496 kts | 61° |
| 2026-05-06 14:02 | 40.90481 | 5.76692 | 33946 ft | 495 kts | 61° |
| 2026-05-06 14:02 | 40.93866 | 5.84623 | 33954 ft | 495 kts | 61° |
| 2026-05-06 14:03 | 40.97226 | 5.92518 | 33965 ft | 495 kts | 61° |
| 2026-05-06 14:03 | 41.00603 | 6.00472 | 33960 ft | 496 kts | 61° |
| 2026-05-06 14:04 | 41.03996 | 6.08486 | 33963 ft | 496 kts | 61° |
| 2026-05-06 14:04 | 41.07334 | 6.16389 | 33953 ft | 495 kts | 62° |
| 2026-05-06 14:05 | 41.10689 | 6.24355 | 33957 ft | 494 kts | 62° |
| 2026-05-06 14:05 | 41.14030 | 6.32311 | 33960 ft | 494 kts | 62° |
| 2026-05-06 14:06 | 41.17365 | 6.40274 | 33984 ft | 494 kts | 62° |
| 2026-05-06 14:06 | 41.20698 | 6.48250 | 33942 ft | 494 kts | 62° |
| 2026-05-06 14:07 | 41.24040 | 6.56213 | 33947 ft | 494 kts | 60° |
| 2026-05-06 14:07 | 41.28167 | 6.63489 | 33960 ft | 493 kts | 50° |
| 2026-05-06 14:08 | 41.32616 | 6.70438 | 33953 ft | 493 kts | 49° |
| 2026-05-06 14:08 | 41.37041 | 6.77410 | 33986 ft | 493 kts | 50° |
| 2026-05-06 14:09 | 41.41425 | 6.84450 | 33929 ft | 494 kts | 51° |
| 2026-05-06 14:09 | 41.45791 | 6.91526 | 33951 ft | 494 kts | 51° |
| 2026-05-06 14:10 | 41.50150 | 6.98611 | 33958 ft | 494 kts | 51° |
| 2026-05-06 14:10 | 41.54508 | 7.05706 | 33957 ft | 495 kts | 51° |
| 2026-05-06 14:11 | 41.58872 | 7.12823 | 33959 ft | 496 kts | 51° |
| 2026-05-06 14:11 | 41.63238 | 7.19959 | 33962 ft | 496 kts | 51° |
| 2026-05-06 14:12 | 41.67605 | 7.27115 | 33952 ft | 497 kts | 51° |
| 2026-05-06 14:12 | 41.71973 | 7.34290 | 33960 ft | 497 kts | 51° |
| 2026-05-06 14:13 | 41.76340 | 7.41479 | 33974 ft | 498 kts | 51° |
| 2026-05-06 14:13 | 41.80711 | 7.48694 | 33951 ft | 499 kts | 51° |
| 2026-05-06 14:14 | 41.85080 | 7.55921 | 33949 ft | 499 kts | 51° |
| 2026-05-06 14:14 | 41.89445 | 7.63160 | 33939 ft | 499 kts | 52° |
| 2026-05-06 14:15 | 41.93804 | 7.70407 | 33949 ft | 498 kts | 52° |
| 2026-05-06 14:15 | 41.98154 | 7.77655 | 33964 ft | 499 kts | 52° |
| 2026-05-06 14:16 | 42.02477 | 7.84876 | 33944 ft | 499 kts | 52° |
| 2026-05-06 14:16 | 42.06820 | 7.92149 | 33945 ft | 499 kts | 52° |
| 2026-05-06 14:17 | 42.10457 | 7.98251 | 33923 ft | 498 kts | 52° |
| 2026-05-06 14:17 | 42.14785 | 8.05531 | 33963 ft | 498 kts | 52° |
| 2026-05-06 14:18 | 42.19109 | 8.12823 | 33945 ft | 498 kts | 52° |
| 2026-05-06 14:18 | 42.23431 | 8.20128 | 33939 ft | 498 kts | 52° |
| 2026-05-06 14:19 | 42.27745 | 8.27437 | 33948 ft | 498 kts | 52° |
| 2026-05-06 14:19 | 42.32373 | 8.34374 | 33951 ft | 497 kts | 39° |
| 2026-05-06 14:20 | 42.38176 | 8.39337 | 33940 ft | 493 kts | 20° |
| 2026-05-06 14:20 | 42.44529 | 8.42803 | 33932 ft | 492 kts | 18° |
| 2026-05-06 14:21 | 42.50900 | 8.46219 | 33938 ft | 493 kts | 19° |
| 2026-05-06 14:21 | 42.57255 | 8.49719 | 33932 ft | 493 kts | 19° |
| 2026-05-06 14:22 | 42.63606 | 8.53267 | 33939 ft | 494 kts | 19° |
| 2026-05-06 14:22 | 42.69964 | 8.56830 | 33944 ft | 494 kts | 19° |
| 2026-05-06 14:23 | 42.76333 | 8.60403 | 33933 ft | 495 kts | 19° |
| 2026-05-06 14:23 | 42.82703 | 8.63983 | 33923 ft | 496 kts | 19° |
| 2026-05-06 14:24 | 42.89085 | 8.67576 | 33922 ft | 496 kts | 19° |
| 2026-05-06 14:24 | 42.95472 | 8.71175 | 33926 ft | 497 kts | 19° |
| 2026-05-06 14:25 | 43.01865 | 8.74783 | 33915 ft | 497 kts | 19° |
| 2026-05-06 14:25 | 43.08257 | 8.78399 | 33919 ft | 497 kts | 19° |
| 2026-05-06 14:26 | 43.14653 | 8.82027 | 33915 ft | 498 kts | 19° |
| 2026-05-06 14:26 | 43.21053 | 8.85665 | 33909 ft | 498 kts | 19° |
| 2026-05-06 14:27 | 43.27448 | 8.89309 | 33904 ft | 498 kts | 19° |
| 2026-05-06 14:27 | 43.33843 | 8.92961 | 33907 ft | 498 kts | 19° |
| 2026-05-06 14:28 | 43.40415 | 8.95655 | 33906 ft | 489 kts | 3° |
| 2026-05-06 14:28 | 43.47126 | 8.95940 | 33909 ft | 480 kts | 352° |
| 2026-05-06 14:29 | 43.53823 | 8.95794 | 33898 ft | 483 kts | 353° |
| 2026-05-06 14:29 | 43.60560 | 8.95998 | 33876 ft | 491 kts | 4° |
| 2026-05-06 14:30 | 43.63899 | 8.97166 | 33896 ft | 499 kts | 17° |
| 2026-05-06 14:30 | 43.67040 | 8.99243 | 33884 ft | 504 kts | 31° |